createdAt,value
2022-08-23T00:01:00.698Z,10.20
2022-08-23T00:04:07.812Z,6.10
2022-08-23T00:07:13.229Z,7.43
2022-08-23T00:10:16.797Z,8.70
2022-08-23T00:13:19.236Z,10.02
2022-08-23T00:16:21.990Z,9.00
2022-08-23T00:19:24.735Z,11.23
2022-08-23T00:22:26.989Z,11.85
2022-08-23T00:25:29.186Z,9.65
2022-08-23T00:28:31.460Z,8.48
2022-08-23T00:31:33.708Z,7.90
2022-08-23T00:34:37.245Z,11.00
2022-08-23T00:37:39.784Z,9.50
2022-08-23T00:40:47.369Z,11.90
2022-08-23T00:44:08.278Z,13.30
2022-08-23T00:47:30.701Z,8.68
2022-08-23T00:50:38.484Z,6.97
2022-08-23T00:53:44.815Z,10.00
2022-08-23T00:56:47.383Z,6.37
2022-08-23T00:59:50.219Z,11.77
2022-08-23T01:02:52.602Z,10.75
2022-08-23T01:06:02.139Z,6.57
2022-08-23T01:09:09.660Z,8.82
2022-08-23T01:12:18.576Z,9.38
2022-08-23T01:16:09.547Z,9.07
2022-08-23T01:19:31.736Z,11.12
2022-08-23T01:22:52.962Z,8.32
2022-08-23T01:25:55.520Z,11.10
2022-08-23T01:28:58.049Z,11.25
2022-08-23T01:32:00.848Z,9.00
2022-08-23T01:35:04.134Z,9.95
2022-08-23T01:38:07.532Z,11.40
2022-08-23T01:41:10.288Z,15.02
2022-08-23T01:44:13.885Z,13.20
2022-08-23T01:47:16.050Z,11.00
2022-08-23T01:50:18.982Z,14.13
2022-08-23T01:53:21.319Z,15.80
2022-08-23T01:56:38.193Z,11.15
2022-08-23T01:59:43.194Z,13.60
2022-08-23T02:02:47.170Z,13.75
2022-08-23T02:05:49.519Z,12.75
2022-08-23T02:09:04.539Z,10.55
2022-08-23T02:12:07.027Z,12.25
2022-08-23T02:15:09.615Z,14.18
2022-08-23T02:18:12.794Z,13.20
2022-08-23T02:21:16.697Z,11.07
2022-08-23T02:24:24.020Z,11.07
2022-08-23T02:27:26.280Z,13.35
2022-08-23T02:30:28.487Z,12.10
2022-08-23T02:33:30.850Z,22.33
2022-08-23T02:36:34.780Z,12.25
2022-08-23T02:39:38.828Z,12.60
2022-08-23T02:42:41.906Z,11.23
2022-08-23T02:45:44.133Z,12.30
2022-08-23T02:48:46.384Z,14.90
2022-08-23T02:51:48.787Z,15.07
2022-08-23T02:54:51.046Z,15.07
2022-08-23T02:57:55.547Z,14.50
2022-08-23T03:00:58.169Z,17.12
2022-08-23T03:04:00.990Z,18.55
2022-08-23T03:07:03.256Z,16.23
2022-08-23T03:10:07.131Z,14.75
2022-08-23T03:13:09.336Z,15.15
2022-08-23T03:16:12.147Z,18.65
2022-08-23T03:19:14.383Z,18.77
2022-08-23T03:22:16.623Z,18.73
2022-08-23T03:25:18.838Z,19.95
2022-08-23T03:28:21.043Z,15.70
2022-08-23T03:31:23.395Z,18.60
2022-08-23T03:34:25.796Z,18.83
2022-08-23T03:37:28.034Z,14.23
2022-08-23T03:40:30.365Z,14.77
2022-08-23T03:43:32.717Z,18.98
2022-08-23T03:46:35.408Z,13.38
2022-08-23T03:49:37.709Z,15.10
2022-08-23T03:52:40.105Z,17.42
2022-08-23T03:55:43.343Z,25.45
2022-08-23T03:58:45.527Z,20.15
2022-08-23T04:01:48.549Z,14.50
2022-08-23T04:04:50.962Z,17.42
2022-08-23T04:07:53.959Z,17.83
2022-08-23T04:10:56.107Z,17.33
2022-08-23T04:13:58.817Z,14.35
2022-08-23T04:17:00.979Z,15.93
2022-08-23T04:20:04.806Z,16.05
2022-08-23T04:23:06.988Z,16.48
2022-08-23T04:26:09.729Z,13.68
2022-08-23T04:29:28.493Z,12.52
2022-08-23T04:32:36.720Z,16.23
2022-08-23T04:35:41.509Z,14.70
2022-08-23T04:38:43.790Z,20.10
2022-08-23T04:42:04.862Z,17.87
2022-08-23T04:45:07.827Z,14.52
2022-08-23T04:48:11.982Z,13.02
2022-08-23T04:51:14.928Z,17.83
2022-08-23T04:54:21.261Z,15.50
2022-08-23T04:57:25.944Z,14.45
2022-08-23T05:00:28.282Z,15.00
2022-08-23T05:03:32.124Z,15.82
2022-08-23T05:06:34.361Z,13.65
2022-08-23T05:09:36.606Z,15.32
2022-08-23T05:12:39.514Z,14.13
2022-08-23T05:15:41.937Z,14.07
2022-08-23T05:18:44.352Z,12.73
2022-08-23T05:21:46.971Z,13.68
2022-08-23T05:24:49.183Z,11.15
2022-08-23T05:27:51.361Z,13.65
2022-08-23T05:31:00.498Z,11.75
2022-08-23T05:34:05.029Z,15.90
2022-08-23T05:37:07.217Z,19.67
2022-08-23T05:40:29.415Z,12.15
2022-08-23T05:43:51.873Z,13.88
2022-08-23T05:47:16.076Z,11.00
2022-08-23T05:50:38.473Z,11.85
2022-08-23T05:54:06.425Z,11.85
2022-08-23T05:57:28.627Z,13.68
2022-08-23T06:00:51.197Z,13.85
2022-08-23T06:04:13.586Z,15.10
2022-08-23T06:07:36.350Z,11.38
2022-08-23T06:11:01.297Z,11.65
2022-08-23T06:14:23.715Z,12.80
2022-08-23T06:17:47.242Z,13.43
2022-08-23T06:20:49.687Z,12.98
2022-08-23T06:23:53.399Z,13.68
2022-08-23T06:26:55.773Z,17.62
2022-08-23T06:29:58.037Z,14.45
2022-08-23T06:33:00.259Z,11.48
2022-08-23T06:36:04.977Z,11.57
2022-08-23T06:39:09.577Z,13.55
2022-08-23T06:42:37.125Z,10.98
2022-08-23T06:45:36.660Z,11.82
2022-08-23T06:48:39.574Z,9.80
2022-08-23T06:51:45.453Z,10.95
2022-08-23T06:54:48.554Z,10.90
2022-08-23T06:57:50.852Z,9.93
2022-08-23T07:00:57.186Z,9.57
2022-08-23T07:04:01.084Z,11.50
2022-08-23T07:07:07.083Z,8.85
2022-08-23T07:10:11.838Z,9.45
2022-08-23T07:13:18.375Z,10.20
2022-08-23T07:16:21.099Z,10.05
2022-08-23T07:19:29.049Z,12.18
2022-08-23T07:22:31.591Z,8.55
2022-08-23T07:25:33.865Z,8.88
2022-08-23T07:28:37.116Z,6.85
2022-08-23T07:31:43.272Z,9.13
2022-08-23T07:34:45.479Z,7.00
2022-08-23T07:37:47.737Z,6.70
2022-08-23T07:40:53.991Z,5.68
2022-08-23T07:43:58.291Z,6.82
2022-08-23T07:47:00.928Z,8.38
2022-08-23T07:50:03.316Z,5.53
2022-08-23T07:53:05.599Z,8.77
2022-08-23T07:56:10.372Z,7.05
2022-08-23T07:59:13.174Z,6.37
2022-08-23T08:02:15.747Z,5.00
2022-08-23T08:05:21.581Z,6.07
2022-08-23T08:08:24.168Z,7.40
2022-08-23T08:11:33.691Z,6.15
2022-08-23T08:14:37.379Z,4.28
2022-08-23T08:17:39.668Z,4.80
2022-08-23T08:20:44.101Z,3.72
2022-08-23T08:23:46.488Z,5.25
2022-08-23T08:26:48.756Z,5.25
2022-08-23T08:29:51.031Z,4.40
2022-08-23T08:32:54.173Z,4.40
2022-08-23T08:35:59.811Z,5.37
2022-08-23T08:39:10.342Z,4.95
2022-08-23T08:42:12.754Z,4.75
2022-08-23T08:45:27.000Z,3.87
2022-08-23T08:48:30.640Z,5.57
2022-08-23T08:52:11.515Z,4.37
2022-08-23T08:55:23.572Z,4.12
2022-08-23T08:58:43.872Z,4.20
2022-08-23T09:01:46.277Z,3.07
2022-08-23T09:04:49.075Z,5.18
2022-08-23T09:08:17.590Z,3.47
2022-08-23T09:11:31.711Z,2.65
2022-08-23T09:14:38.132Z,5.45
2022-08-23T09:17:43.938Z,3.53
2022-08-23T09:20:48.300Z,2.78
2022-08-23T09:24:00.432Z,3.53
2022-08-23T09:27:03.765Z,4.15
2022-08-23T09:30:07.990Z,2.62
2022-08-23T09:33:19.033Z,3.60
2022-08-23T09:36:30.405Z,3.97
2022-08-23T09:39:33.679Z,5.22
2022-08-23T09:42:38.031Z,2.87
2022-08-23T09:46:02.699Z,2.78
2022-08-23T09:49:24.979Z,2.85
2022-08-23T09:52:33.238Z,2.53
2022-08-23T09:55:39.274Z,3.12
2022-08-23T09:58:43.995Z,2.45
2022-08-23T10:01:48.034Z,3.28
2022-08-23T10:05:05.457Z,3.00
2022-08-23T10:08:10.516Z,3.35
2022-08-23T10:11:19.262Z,2.80
2022-08-23T10:14:24.941Z,3.10
2022-08-23T10:17:49.343Z,3.75
2022-08-23T10:21:20.939Z,4.65
2022-08-23T10:25:05.592Z,2.78
2022-08-23T10:28:48.910Z,2.67
2022-08-23T10:31:59.260Z,3.78
2022-08-23T10:35:19.916Z,2.97
2022-08-23T10:38:40.172Z,3.33
2022-08-23T10:42:08.580Z,4.10
2022-08-23T10:45:26.485Z,3.70
2022-08-23T10:48:50.180Z,3.58
2022-08-23T10:51:53.270Z,3.22
2022-08-23T10:55:06.166Z,2.90
2022-08-23T10:58:14.497Z,6.30
2022-08-23T11:01:26.192Z,3.25
2022-08-23T11:04:44.919Z,3.40
2022-08-23T11:08:04.190Z,5.40
2022-08-23T11:11:45.141Z,2.53
2022-08-23T11:14:59.473Z,3.67
2022-08-23T11:18:05.408Z,3.12
2022-08-23T11:21:25.850Z,3.05
2022-08-23T11:24:30.602Z,3.50
2022-08-23T11:27:42.125Z,2.67
2022-08-23T11:30:49.361Z,3.53
2022-08-23T11:34:05.120Z,3.58
2022-08-23T11:37:19.728Z,3.75
2022-08-23T11:40:50.773Z,3.45
2022-08-23T11:43:56.006Z,6.03
2022-08-23T11:47:00.943Z,4.70
2022-08-23T11:50:14.233Z,3.87
2022-08-23T11:53:50.259Z,3.42
2022-08-23T11:56:58.342Z,7.32
2022-08-23T12:00:29.375Z,2.95
2022-08-23T12:03:56.221Z,4.80
2022-08-23T12:07:03.661Z,4.82
2022-08-23T12:10:06.441Z,3.17
2022-08-23T12:13:23.288Z,4.93
2022-08-23T12:16:30.287Z,4.50
2022-08-23T12:19:59.985Z,3.65
2022-08-23T12:23:06.632Z,4.07
2022-08-23T12:26:38.121Z,4.37
2022-08-23T12:29:45.298Z,5.55
2022-08-23T12:32:55.697Z,6.12
2022-08-23T12:36:19.509Z,3.25
2022-08-23T12:39:28.829Z,8.23
2022-08-23T12:42:35.442Z,3.62
2022-08-23T12:45:44.221Z,5.20
2022-08-23T12:48:47.332Z,4.07
2022-08-23T12:51:52.112Z,3.85
2022-08-23T12:54:57.824Z,9.43
2022-08-23T12:58:00.926Z,5.68
2022-08-23T13:01:19.271Z,5.22
2022-08-23T13:04:21.902Z,3.42
2022-08-23T13:07:26.609Z,4.00
2022-08-23T13:10:29.043Z,5.20
2022-08-23T13:13:31.533Z,5.82
2022-08-23T13:16:37.085Z,3.62
2022-08-23T13:19:39.270Z,6.72
2022-08-23T13:23:04.719Z,4.57
2022-08-23T13:26:26.937Z,3.20
2022-08-23T13:29:29.254Z,3.22
2022-08-23T13:32:36.764Z,3.67
2022-08-23T13:35:42.234Z,5.07
2022-08-23T13:38:44.900Z,2.62
2022-08-23T13:41:47.134Z,2.85
2022-08-23T13:44:49.359Z,6.40
2022-08-23T13:47:56.377Z,5.07
2022-08-23T13:51:17.564Z,3.90
2022-08-23T13:54:19.778Z,5.43
2022-08-23T13:57:22.374Z,2.97
2022-08-23T14:00:25.519Z,3.15
2022-08-23T14:03:29.136Z,5.07
2022-08-23T14:06:31.372Z,3.45
2022-08-23T14:09:36.115Z,3.37
2022-08-23T14:12:38.954Z,3.97
2022-08-23T14:15:59.020Z,2.90
2022-08-23T14:19:17.995Z,4.65
2022-08-23T14:22:35.186Z,2.62
2022-08-23T14:25:37.403Z,3.42
2022-08-23T14:28:44.290Z,4.28
2022-08-23T14:31:46.849Z,4.32
2022-08-23T14:34:49.126Z,3.20
2022-08-23T14:38:06.550Z,5.70
2022-08-23T14:41:18.196Z,5.72
2022-08-23T14:44:20.588Z,3.47
2022-08-23T14:47:22.905Z,3.25
2022-08-23T14:50:25.127Z,4.85
2022-08-23T14:53:31.839Z,3.00
2022-08-23T14:56:34.395Z,4.10
2022-08-23T14:59:36.888Z,3.85
2022-08-23T15:02:39.409Z,4.60
2022-08-23T15:05:41.707Z,3.35
2022-08-23T15:08:44.109Z,5.28
2022-08-23T15:15:12.825Z,3.75
2022-08-23T15:18:15.351Z,3.72
2022-08-23T15:21:17.829Z,4.20
2022-08-23T15:24:20.031Z,3.00
2022-08-23T15:27:22.589Z,3.12
2022-08-23T15:30:25.148Z,4.15
2022-08-23T15:33:30.879Z,3.78
2022-08-23T15:36:36.582Z,4.00
2022-08-23T15:39:38.870Z,3.60
2022-08-23T15:42:41.484Z,4.00
2022-08-23T15:45:43.965Z,3.33
2022-08-23T15:48:57.793Z,3.12
2022-08-23T15:52:00.206Z,3.90
2022-08-23T15:55:02.471Z,6.28
2022-08-23T15:58:04.747Z,3.80
2022-08-23T16:01:07.085Z,3.55
2022-08-23T16:04:09.772Z,3.35
2022-08-23T16:07:15.395Z,5.43
2022-08-23T16:10:17.655Z,3.33
2022-08-23T16:13:20.476Z,4.45
2022-08-23T16:16:25.863Z,4.60
2022-08-23T16:19:29.089Z,5.87
2022-08-23T16:22:31.564Z,7.32
2022-08-23T16:25:34.605Z,5.10
2022-08-23T16:28:36.783Z,3.10
2022-08-23T16:31:40.438Z,3.50
2022-08-23T16:34:42.714Z,3.80
2022-08-23T16:37:44.923Z,3.78
2022-08-23T16:40:47.167Z,5.40
2022-08-23T16:43:50.221Z,4.85
2022-08-23T16:46:52.479Z,4.55
2022-08-23T16:49:55.773Z,2.90
2022-08-23T16:52:59.510Z,3.80
2022-08-23T16:56:05.624Z,4.47
2022-08-23T16:59:10.579Z,5.15
2022-08-23T17:02:34.000Z,3.95
2022-08-23T17:05:36.285Z,6.03
2022-08-23T17:08:38.530Z,4.50
2022-08-23T17:11:41.995Z,7.10
2022-08-23T17:14:45.559Z,5.78
2022-08-23T17:17:48.540Z,4.32
2022-08-23T17:20:50.938Z,5.60
2022-08-23T17:23:53.185Z,6.57
2022-08-23T17:26:55.404Z,3.22
2022-08-23T17:29:57.633Z,3.03
2022-08-23T17:32:59.957Z,6.35
2022-08-23T17:36:02.224Z,4.43
2022-08-23T17:39:08.556Z,3.33
2022-08-23T17:42:10.803Z,3.50
2022-08-23T17:45:13.390Z,5.20
2022-08-23T17:48:17.691Z,3.47
2022-08-23T17:51:19.960Z,3.10
2022-08-23T17:54:22.339Z,3.80
2022-08-23T17:57:24.860Z,5.85
2022-08-23T18:00:27.712Z,6.53
2022-08-23T18:03:31.606Z,5.85
2022-08-23T18:06:36.422Z,3.33
2022-08-23T18:09:48.698Z,5.03
2022-08-23T18:12:53.086Z,4.28
2022-08-23T18:15:55.693Z,2.97
2022-08-23T18:18:59.175Z,3.72
2022-08-23T18:22:02.564Z,4.12
2022-08-23T18:25:06.603Z,4.65
2022-08-23T18:28:09.964Z,3.85
2022-08-23T18:31:15.267Z,3.83
2022-08-23T18:34:18.275Z,3.87
2022-08-23T18:37:21.898Z,3.17
2022-08-23T18:40:25.969Z,4.87
2022-08-23T18:43:37.134Z,3.92
2022-08-23T18:46:42.280Z,8.38
2022-08-23T18:49:44.604Z,5.03
2022-08-23T18:52:46.940Z,5.65
2022-08-23T18:55:52.513Z,4.25
2022-08-23T18:58:55.499Z,5.15
2022-08-23T19:01:58.013Z,4.15
2022-08-23T19:05:02.996Z,4.50
2022-08-23T19:08:05.652Z,4.57
2022-08-23T19:11:08.554Z,4.10
2022-08-23T19:14:12.633Z,3.75
2022-08-23T19:17:14.865Z,3.08
2022-08-23T19:20:18.078Z,5.25
2022-08-23T19:23:21.552Z,4.70
2022-08-23T19:26:31.632Z,5.72
2022-08-23T19:29:34.619Z,3.67
2022-08-23T19:32:39.457Z,5.03
2022-08-23T19:35:42.342Z,4.43
2022-08-23T19:38:44.524Z,3.17
2022-08-23T19:41:48.661Z,5.50
2022-08-23T19:44:50.891Z,5.80
2022-08-23T19:47:53.925Z,3.50
2022-08-23T19:50:56.457Z,3.80
2022-08-23T19:54:06.978Z,3.20
2022-08-23T19:57:13.953Z,4.22
2022-08-23T20:00:19.587Z,7.12
2022-08-23T20:03:22.215Z,3.60
2022-08-23T20:06:24.507Z,4.97
2022-08-23T20:09:29.111Z,5.15
2022-08-23T20:12:33.168Z,4.18
2022-08-23T20:15:35.690Z,4.00
2022-08-23T20:18:38.028Z,8.20
2022-08-23T20:21:41.157Z,3.55
2022-08-23T20:24:51.347Z,3.65
2022-08-23T20:30:56.500Z,3.78
2022-08-23T20:33:59.424Z,6.85
2022-08-23T20:37:01.965Z,8.60
2022-08-23T20:40:05.285Z,9.77
2022-08-23T20:43:07.611Z,4.18
2022-08-23T20:46:09.862Z,5.00
2022-08-23T20:49:12.536Z,3.80
2022-08-23T20:52:18.462Z,7.70
2022-08-23T20:55:20.756Z,4.57
2022-08-23T20:58:23.980Z,4.22
2022-08-23T21:01:26.356Z,4.57
2022-08-23T21:04:30.354Z,9.15
2022-08-23T21:07:32.709Z,4.28
2022-08-23T21:10:34.995Z,5.20
2022-08-23T21:13:41.987Z,8.07
2022-08-23T21:16:44.970Z,5.50
2022-08-23T21:19:47.183Z,4.05
2022-08-23T21:22:49.760Z,4.60
2022-08-23T21:25:55.984Z,4.20
2022-08-23T21:28:58.639Z,5.78
2022-08-23T21:32:01.145Z,4.97
2022-08-23T21:35:03.610Z,4.82
2022-08-23T21:38:05.865Z,3.37
2022-08-23T21:41:11.355Z,4.10
2022-08-23T21:44:16.538Z,3.70
2022-08-23T21:47:19.697Z,8.57
2022-08-23T21:50:24.579Z,5.75
2022-08-23T21:53:31.041Z,6.10
2022-08-23T21:56:33.268Z,4.37
2022-08-23T21:59:35.528Z,3.72
2022-08-23T22:02:37.824Z,4.12
2022-08-23T22:05:41.512Z,9.43
2022-08-23T22:08:44.802Z,7.00
2022-08-23T22:11:48.304Z,4.60
2022-08-23T22:14:50.674Z,6.15
2022-08-23T22:17:55.282Z,4.70
2022-08-23T22:20:58.344Z,6.93
2022-08-23T22:24:00.632Z,7.28
2022-08-23T22:27:03.005Z,5.80
2022-08-23T22:30:05.689Z,3.60
2022-08-23T22:33:07.946Z,11.50
2022-08-23T22:36:14.391Z,7.20
2022-08-23T22:39:17.680Z,5.45
2022-08-23T22:42:19.911Z,4.40
2022-08-23T22:45:22.184Z,3.83
2022-08-23T22:48:25.046Z,4.78
2022-08-23T22:51:31.109Z,4.57
2022-08-23T22:54:35.819Z,4.68
2022-08-23T22:57:38.157Z,4.20
2022-08-23T23:00:43.703Z,7.87
2022-08-23T23:03:46.510Z,4.75
2022-08-23T23:06:51.320Z,8.80
2022-08-23T23:09:53.640Z,4.53
2022-08-23T23:12:55.973Z,5.97
2022-08-23T23:16:02.251Z,4.05
2022-08-23T23:19:23.158Z,4.87
2022-08-23T23:22:25.335Z,5.43
2022-08-23T23:25:27.555Z,3.95
2022-08-23T23:28:30.169Z,9.45
2022-08-23T23:31:32.341Z,5.20
2022-08-23T23:34:35.008Z,5.18
2022-08-23T23:37:37.584Z,5.20
2022-08-23T23:40:40.731Z,5.37
2022-08-23T23:43:42.910Z,6.65
2022-08-23T23:46:49.611Z,5.55
2022-08-23T23:49:52.104Z,5.62
2022-08-23T23:52:54.636Z,4.28
2022-08-23T23:56:01.172Z,4.75
2022-08-23T23:59:03.710Z,5.05
